sensor_id;sensor_type;location;lat;lon;timestamp;pressure;altitude;pressure_sealevel;temperature;humidity
14383;BME280;7275;50.328;8.720;2024-03-06T00:00:42;99800.22;;;14.31;49.64
14383;BME280;7275;50.328;8.720;2024-03-06T00:03:09;99809.16;;;14.30;49.68
14383;BME280;7275;50.328;8.720;2024-03-06T00:05:38;99812.75;;;14.29;49.64
14383;BME280;7275;50.328;8.720;2024-03-06T00:08:06;99818.06;;;14.29;49.63
14383;BME280;7275;50.328;8.720;2024-03-06T00:10:33;99818.06;;;14.29;49.64
14383;BME280;7275;50.328;8.720;2024-03-06T00:13:02;99823.44;;;14.27;49.65
14383;BME280;7275;50.328;8.720;2024-03-06T00:15:30;99827.78;;;14.30;49.53
14383;BME280;7275;50.328;8.720;2024-03-06T00:17:57;99824.25;;;14.29;49.59
14383;BME280;7275;50.328;8.720;2024-03-06T00:20:26;99826.03;;;14.29;49.56
14383;BME280;7275;50.328;8.720;2024-03-06T00:22:55;99834.88;;;14.29;49.57
14383;BME280;7275;50.328;8.720;2024-03-06T00:25:25;99834.00;;;14.29;49.52
14383;BME280;7275;50.328;8.720;2024-03-06T00:27:53;99842.91;;;14.28;49.52
14383;BME280;7275;50.328;8.720;2024-03-06T00:30:20;99845.56;;;14.28;49.40
14383;BME280;7275;50.328;8.720;2024-03-06T00:32:48;99846.59;;;14.25;49.48
14383;BME280;7275;50.328;8.720;2024-03-06T00:35:16;99864.31;;;14.25;49.40
14383;BME280;7275;50.328;8.720;2024-03-06T00:37:43;99863.50;;;14.24;49.42
14383;BME280;7275;50.328;8.720;2024-03-06T00:40:13;99864.31;;;14.25;49.41
14383;BME280;7275;50.328;8.720;2024-03-06T00:42:40;99866.16;;;14.24;49.40
14383;BME280;7275;50.328;8.720;2024-03-06T00:45:09;99868.03;;;14.22;49.40
14383;BME280;7275;50.328;8.720;2024-03-06T00:47:36;99860.97;;;14.21;49.26
14383;BME280;7275;50.328;8.720;2024-03-06T00:50:04;99862.94;;;14.18;49.32
14383;BME280;7275;50.328;8.720;2024-03-06T00:52:33;99857.03;;;14.11;49.24
14383;BME280;7275;50.328;8.720;2024-03-06T00:55:01;99857.19;;;14.08;49.39
14383;BME280;7275;50.328;8.720;2024-03-06T00:57:30;99858.22;;;14.06;49.48
14383;BME280;7275;50.328;8.720;2024-03-06T00:59:58;99861.72;;;14.06;49.36
14383;BME280;7275;50.328;8.720;2024-03-06T01:02:25;99864.44;;;14.05;49.42
14383;BME280;7275;50.328;8.720;2024-03-06T01:04:53;99867.13;;;14.05;49.33
14383;BME280;7275;50.328;8.720;2024-03-06T01:07:22;99872.50;;;14.03;49.52
14383;BME280;7275;50.328;8.720;2024-03-06T01:09:50;99869.91;;;14.02;49.52
14383;BME280;7275;50.328;8.720;2024-03-06T01:12:17;99870.84;;;14.01;49.34
14383;BME280;7275;50.328;8.720;2024-03-06T01:14:46;99878.91;;;13.99;49.40
14383;BME280;7275;50.328;8.720;2024-03-06T01:17:14;99877.34;;;13.95;49.45
14383;BME280;7275;50.328;8.720;2024-03-06T01:19:42;99881.13;;;13.90;49.63
14383;BME280;7275;50.328;8.720;2024-03-06T01:22:10;99878.63;;;13.87;49.81
14383;BME280;7275;50.328;8.720;2024-03-06T01:24:38;99877.84;;;13.85;49.80
14383;BME280;7275;50.328;8.720;2024-03-06T01:27:06;99879.72;;;13.83;50.01
14383;BME280;7275;50.328;8.720;2024-03-06T01:29:34;99883.31;;;13.82;50.00
14383;BME280;7275;50.328;8.720;2024-03-06T01:32:02;99882.38;;;13.83;49.95
14383;BME280;7275;50.328;8.720;2024-03-06T01:34:30;99888.53;;;13.83;49.97
14383;BME280;7275;50.328;8.720;2024-03-06T01:36:58;99889.56;;;13.81;49.97
14383;BME280;7275;50.328;8.720;2024-03-06T01:39:26;99886.16;;;13.77;50.10
14383;BME280;7275;50.328;8.720;2024-03-06T01:41:53;99888.03;;;13.75;50.05
14383;BME280;7275;50.328;8.720;2024-03-06T01:44:20;99898.81;;;13.72;49.99
14383;BME280;7275;50.328;8.720;2024-03-06T01:46:48;99881.31;;;13.68;50.11
14383;BME280;7275;50.328;8.720;2024-03-06T01:49:17;99894.63;;;13.67;50.16
14383;BME280;7275;50.328;8.720;2024-03-06T01:51:58;99884.19;;;13.63;50.11
14383;BME280;7275;50.328;8.720;2024-03-06T01:54:27;99895.78;;;13.61;50.16
14383;BME280;7275;50.328;8.720;2024-03-06T01:56:55;99894.00;;;13.61;50.12
14383;BME280;7275;50.328;8.720;2024-03-06T01:59:25;99894.13;;;13.58;50.24
14383;BME280;7275;50.328;8.720;2024-03-06T02:02:02;99883.69;;;13.55;50.15
14383;BME280;7275;50.328;8.720;2024-03-06T02:04:32;99890.84;;;13.53;50.42
14383;BME280;7275;50.328;8.720;2024-03-06T02:07:01;99888.25;;;13.52;50.15
14383;BME280;7275;50.328;8.720;2024-03-06T02:09:28;99895.41;;;13.50;50.36
14383;BME280;7275;50.328;8.720;2024-03-06T02:11:56;99897.25;;;13.49;50.32
14383;BME280;7275;50.328;8.720;2024-03-06T02:14:23;99899.91;;;13.49;50.25
14383;BME280;7275;50.328;8.720;2024-03-06T02:16:51;99893.72;;;13.49;50.39
14383;BME280;7275;50.328;8.720;2024-03-06T02:19:19;99895.41;;;13.50;50.16
14383;BME280;7275;50.328;8.720;2024-03-06T02:21:47;99899.81;;;13.51;50.20
14383;BME280;7275;50.328;8.720;2024-03-06T02:24:15;99898.88;;;13.52;50.18
14383;BME280;7275;50.328;8.720;2024-03-06T02:26:43;99892.63;;;13.53;50.21
14383;BME280;7275;50.328;8.720;2024-03-06T02:29:10;99889.03;;;13.54;50.23
14383;BME280;7275;50.328;8.720;2024-03-06T02:31:38;99897.88;;;13.54;50.28
14383;BME280;7275;50.328;8.720;2024-03-06T02:34:06;99899.59;;;13.55;50.26
14383;BME280;7275;50.328;8.720;2024-03-06T02:36:33;99900.53;;;13.54;50.25
14383;BME280;7275;50.328;8.720;2024-03-06T02:39:03;99902.31;;;13.54;50.06
14383;BME280;7275;50.328;8.720;2024-03-06T02:41:35;99895.38;;;13.51;50.09
14383;BME280;7275;50.328;8.720;2024-03-06T02:44:03;99907.78;;;13.51;49.98
14383;BME280;7275;50.328;8.720;2024-03-06T02:46:31;99907.00;;;13.49;50.19
14383;BME280;7275;50.328;8.720;2024-03-06T02:48:59;99908.84;;;13.47;50.05
14383;BME280;7275;50.328;8.720;2024-03-06T02:51:26;99915.16;;;13.44;50.36
14383;BME280;7275;50.328;8.720;2024-03-06T02:53:54;99908.13;;;13.43;50.13
14383;BME280;7275;50.328;8.720;2024-03-06T02:56:23;99914.44;;;13.41;49.96
14383;BME280;7275;50.328;8.720;2024-03-06T02:58:50;99911.00;;;13.39;50.08
14383;BME280;7275;50.328;8.720;2024-03-06T03:01:18;99911.13;;;13.36;50.16
14383;BME280;7275;50.328;8.720;2024-03-06T03:03:46;99915.72;;;13.32;49.95
14383;BME280;7275;50.328;8.720;2024-03-06T03:06:13;99907.09;;;13.27;50.01
14383;BME280;7275;50.328;8.720;2024-03-06T03:08:41;99901.94;;;13.24;50.03
14383;BME280;7275;50.328;8.720;2024-03-06T03:11:08;99902.84;;;13.23;50.17
14383;BME280;7275;50.328;8.720;2024-03-06T03:13:38;99899.41;;;13.21;50.19
14383;BME280;7275;50.328;8.720;2024-03-06T03:16:06;99898.53;;;13.21;50.13
14383;BME280;7275;50.328;8.720;2024-03-06T03:18:33;99901.19;;;13.21;50.02
14383;BME280;7275;50.328;8.720;2024-03-06T03:21:01;99902.13;;;13.20;50.02
14383;BME280;7275;50.328;8.720;2024-03-06T03:23:28;99910.19;;;13.18;50.11
14383;BME280;7275;50.328;8.720;2024-03-06T03:25:56;99920.06;;;13.15;50.09
14383;BME280;7275;50.328;8.720;2024-03-06T03:28:23;99918.34;;;13.14;50.10
14383;BME280;7275;50.328;8.720;2024-03-06T03:30:52;99926.41;;;13.11;50.11
14383;BME280;7275;50.328;8.720;2024-03-06T03:33:20;99916.75;;;13.10;50.02
14383;BME280;7275;50.328;8.720;2024-03-06T03:35:47;99919.44;;;13.08;50.02
14383;BME280;7275;50.328;8.720;2024-03-06T03:38:15;99912.50;;;13.06;50.21
14383;BME280;7275;50.328;8.720;2024-03-06T03:40:43;99917.03;;;13.02;50.27
14383;BME280;7275;50.328;8.720;2024-03-06T03:43:10;99909.16;;;13.01;50.13
14383;BME280;7275;50.328;8.720;2024-03-06T03:45:38;99914.56;;;12.98;50.09
14383;BME280;7275;50.328;8.720;2024-03-06T03:48:07;99916.50;;;12.94;50.00
14383;BME280;7275;50.328;8.720;2024-03-06T03:50:34;99917.56;;;12.90;49.98
14383;BME280;7275;50.328;8.720;2024-03-06T03:53:02;99916.84;;;12.87;49.86
14383;BME280;7275;50.328;8.720;2024-03-06T03:55:30;99916.09;;;12.83;49.89
14383;BME280;7275;50.328;8.720;2024-03-06T03:57:58;99921.56;;;12.80;49.82
14383;BME280;7275;50.328;8.720;2024-03-06T04:00:26;99919.91;;;12.77;49.94
14383;BME280;7275;50.328;8.720;2024-03-06T04:02:53;99934.13;;;12.75;49.96
14383;BME280;7275;50.328;8.720;2024-03-06T04:05:22;99928.97;;;12.72;50.01
14383;BME280;7275;50.328;8.720;2024-03-06T04:07:50;99938.91;;;12.67;50.09
14383;BME280;7275;50.328;8.720;2024-03-06T04:10:18;99942.50;;;12.66;50.09
14383;BME280;7275;50.328;8.720;2024-03-06T04:12:45;99941.75;;;12.62;50.26
14383;BME280;7275;50.328;8.720;2024-03-06T04:15:13;99940.84;;;12.63;50.26
14383;BME280;7275;50.328;8.720;2024-03-06T04:17:40;99946.06;;;12.65;50.24
14383;BME280;7275;50.328;8.720;2024-03-06T04:20:09;99951.44;;;12.63;50.39
14383;BME280;7275;50.328;8.720;2024-03-06T04:22:39;99951.44;;;12.63;50.32
14383;BME280;7275;50.328;8.720;2024-03-06T04:25:08;99954.16;;;12.62;50.48
14383;BME280;7275;50.328;8.720;2024-03-06T04:27:36;99957.66;;;12.62;50.30
14383;BME280;7275;50.328;8.720;2024-03-06T04:30:04;99955.81;;;12.64;50.57
14383;BME280;7275;50.328;8.720;2024-03-06T04:32:32;99958.34;;;12.67;50.62
14383;BME280;7275;50.328;8.720;2024-03-06T04:35:00;99961.81;;;12.69;50.43
14383;BME280;7275;50.328;8.720;2024-03-06T04:37:28;99964.38;;;12.71;50.54
14383;BME280;7275;50.328;8.720;2024-03-06T04:39:57;99967.91;;;12.71;50.32
14383;BME280;7275;50.328;8.720;2024-03-06T04:42:25;99967.91;;;12.71;50.30
14383;BME280;7275;50.328;8.720;2024-03-06T04:44:52;99969.69;;;12.71;50.35
14383;BME280;7275;50.328;8.720;2024-03-06T04:47:20;99972.34;;;12.71;50.44
14383;BME280;7275;50.328;8.720;2024-03-06T04:49:47;99965.31;;;12.70;50.45
14383;BME280;7275;50.328;8.720;2024-03-06T04:52:16;99979.38;;;12.72;50.55
14383;BME280;7275;50.328;8.720;2024-03-06T04:54:44;99980.22;;;12.72;50.37
14383;BME280;7275;50.328;8.720;2024-03-06T04:57:12;99967.97;;;12.70;50.52
14383;BME280;7275;50.328;8.720;2024-03-06T04:59:40;99964.53;;;12.68;50.44
14383;BME280;7275;50.328;8.720;2024-03-06T05:02:07;99976.13;;;12.65;50.45
14383;BME280;7275;50.328;8.720;2024-03-06T05:04:35;99972.66;;;12.63;50.61
14383;BME280;7275;50.328;8.720;2024-03-06T05:07:20;99980.81;;;12.59;50.59
14383;BME280;7275;50.328;8.720;2024-03-06T05:10:06;99979.13;;;12.56;50.63
14383;BME280;7275;50.328;8.720;2024-03-06T05:12:54;99986.28;;;12.54;50.60
14383;BME280;7275;50.328;8.720;2024-03-06T05:15:39;99993.38;;;12.54;50.48
14383;BME280;7275;50.328;8.720;2024-03-06T05:18:24;99994.44;;;12.50;50.50
14383;BME280;7275;50.328;8.720;2024-03-06T05:21:09;100006.03;;;12.47;50.60
14383;BME280;7275;50.328;8.720;2024-03-06T05:23:56;100000.84;;;12.44;50.57
14383;BME280;7275;50.328;8.720;2024-03-06T05:26:41;100003.59;;;12.41;50.56
14383;BME280;7275;50.328;8.720;2024-03-06T05:29:27;100003.81;;;12.37;50.76
14383;BME280;7275;50.328;8.720;2024-03-06T05:32:12;99996.94;;;12.31;50.67
14383;BME280;7275;50.328;8.720;2024-03-06T05:34:58;100010.38;;;12.27;50.95
14383;BME280;7275;50.328;8.720;2024-03-06T05:37:43;100026.34;;;12.25;51.09
14383;BME280;7275;50.328;8.720;2024-03-06T05:40:28;100023.63;;;12.27;51.24
14383;BME280;7275;50.328;8.720;2024-03-06T05:43:14;100028.94;;;12.27;50.90
14383;BME280;7275;50.328;8.720;2024-03-06T05:46:01;100035.91;;;12.29;50.86
14383;BME280;7275;50.328;8.720;2024-03-06T05:48:46;100031.53;;;12.28;50.89
14383;BME280;7275;50.328;8.720;2024-03-06T05:51:31;100039.53;;;12.27;50.99
14383;BME280;7275;50.328;8.720;2024-03-06T05:54:16;100037.91;;;12.24;50.97
14383;BME280;7275;50.328;8.720;2024-03-06T05:57:01;100046.69;;;12.25;51.29
14383;BME280;7275;50.328;8.720;2024-03-06T05:59:46;100047.50;;;12.27;50.95
14383;BME280;7275;50.328;8.720;2024-03-06T06:02:16;100052.69;;;12.30;51.21
14383;BME280;7275;50.328;8.720;2024-03-06T06:04:44;100056.06;;;12.33;51.20
14383;BME280;7275;50.328;8.720;2024-03-06T06:07:25;100060.34;;;12.37;51.02
14383;BME280;7275;50.328;8.720;2024-03-06T06:09:53;100054.06;;;12.40;51.05
14383;BME280;7275;50.328;8.720;2024-03-06T06:12:20;100064.47;;;12.44;50.87
14383;BME280;7275;50.328;8.720;2024-03-06T06:14:48;100063.56;;;12.45;51.03
14383;BME280;7275;50.328;8.720;2024-03-06T06:17:17;100069.69;;;12.47;50.87
14383;BME280;7275;50.328;8.720;2024-03-06T06:19:46;100083.75;;;12.49;50.85
14383;BME280;7275;50.328;8.720;2024-03-06T06:22:13;100076.63;;;12.50;50.76
14383;BME280;7275;50.328;8.720;2024-03-06T06:24:41;100081.03;;;12.51;50.70
14383;BME280;7275;50.328;8.720;2024-03-06T06:27:13;100081.94;;;12.50;50.79
14383;BME280;7275;50.328;8.720;2024-03-06T06:29:40;100081.03;;;12.51;50.62
14383;BME280;7275;50.328;8.720;2024-03-06T06:32:08;100080.94;;;12.52;50.70
14383;BME280;7275;50.328;8.720;2024-03-06T06:34:36;100085.34;;;12.53;50.75
14383;BME280;7275;50.328;8.720;2024-03-06T06:37:04;100091.38;;;12.57;50.78
14383;BME280;7275;50.328;8.720;2024-03-06T06:39:32;100096.59;;;12.60;50.82
14383;BME280;7275;50.328;8.720;2024-03-06T06:42:00;100092.00;;;12.63;50.99
14383;BME280;7275;50.328;8.720;2024-03-06T06:44:29;100092.75;;;12.67;50.88
14383;BME280;7275;50.328;8.720;2024-03-06T06:46:57;100097.00;;;12.71;50.96
14383;BME280;7275;50.328;8.720;2024-03-06T06:49:24;100093.44;;;12.72;51.03
14383;BME280;7275;50.328;8.720;2024-03-06T06:51:53;100095.16;;;12.73;51.11
14383;BME280;7275;50.328;8.720;2024-03-06T06:54:21;100097.78;;;12.74;51.30
14383;BME280;7275;50.328;8.720;2024-03-06T06:56:49;100096.75;;;12.77;51.35
14383;BME280;7275;50.328;8.720;2024-03-06T06:59:17;100099.31;;;12.80;51.41
14383;BME280;7275;50.328;8.720;2024-03-06T07:01:48;100094.81;;;12.82;51.45
14383;BME280;7275;50.328;8.720;2024-03-06T07:04:16;100106.28;;;12.82;51.55
14383;BME280;7275;50.328;8.720;2024-03-06T07:06:46;100115.03;;;12.84;51.64
14383;BME280;7275;50.328;8.720;2024-03-06T07:09:15;100105.22;;;12.87;51.62
14383;BME280;7275;50.328;8.720;2024-03-06T07:11:43;100105.97;;;12.90;51.66
14383;BME280;7275;50.328;8.720;2024-03-06T07:14:12;100107.56;;;12.94;51.73
14383;BME280;7275;50.328;8.720;2024-03-06T07:16:41;100109.16;;;12.98;51.61
14383;BME280;7275;50.328;8.720;2024-03-06T07:19:10;100110.72;;;13.04;51.60
14383;BME280;7275;50.328;8.720;2024-03-06T07:21:37;100114.06;;;13.09;51.66
14383;BME280;7275;50.328;8.720;2024-03-06T07:24:05;100118.31;;;13.13;51.61
14383;BME280;7275;50.328;8.720;2024-03-06T07:26:35;100129.56;;;13.19;51.64
14383;BME280;7275;50.328;8.720;2024-03-06T07:29:02;100124.00;;;13.25;51.73
14383;BME280;7275;50.328;8.720;2024-03-06T07:31:30;100135.25;;;13.32;51.57
14383;BME280;7275;50.328;8.720;2024-03-06T07:33:58;100144.69;;;13.39;51.62
14383;BME280;7275;50.328;8.720;2024-03-06T07:36:26;100133.72;;;13.46;51.53
14383;BME280;7275;50.328;8.720;2024-03-06T07:38:53;100133.41;;;13.54;51.41
14383;BME280;7275;50.328;8.720;2024-03-06T07:41:21;100153.53;;;13.59;51.29
14383;BME280;7275;50.328;8.720;2024-03-06T07:43:50;100146.38;;;13.61;51.30
14383;BME280;7275;50.328;8.720;2024-03-06T07:46:17;100154.28;;;13.63;51.34
14383;BME280;7275;50.328;8.720;2024-03-06T07:48:45;100162.97;;;13.67;51.48
14383;BME280;7275;50.328;8.720;2024-03-06T07:51:12;100160.78;;;13.76;51.46
14383;BME280;7275;50.328;8.720;2024-03-06T07:53:40;100164.06;;;13.83;51.34
14383;BME280;7275;50.328;8.720;2024-03-06T07:56:10;100168.97;;;13.92;51.22
14383;BME280;7275;50.328;8.720;2024-03-06T07:58:39;100174.88;;;13.98;51.24
14383;BME280;7275;50.328;8.720;2024-03-06T08:01:08;100184.41;;;14.04;50.97
14383;BME280;7275;50.328;8.720;2024-03-06T08:03:36;100176.28;;;14.07;51.03
14383;BME280;7275;50.328;8.720;2024-03-06T08:06:06;100184.69;;;14.16;50.89
14383;BME280;7275;50.328;8.720;2024-03-06T08:08:33;100182.25;;;14.32;50.99
14383;BME280;7275;50.328;8.720;2024-03-06T08:11:01;100187.69;;;14.49;51.06
14383;BME280;7275;50.328;8.720;2024-03-06T08:13:29;100188.50;;;14.70;51.29
14383;BME280;7275;50.328;8.720;2024-03-06T08:15:56;100192.53;;;14.97;51.23
14383;BME280;7275;50.328;8.720;2024-03-06T08:18:25;100194.50;;;15.29;51.26
14383;BME280;7275;50.328;8.720;2024-03-06T08:20:53;100183.25;;;15.60;50.76
14383;BME280;7275;50.328;8.720;2024-03-06T08:23:21;100198.00;;;15.84;50.25
14383;BME280;7275;50.328;8.720;2024-03-06T08:25:50;100199.72;;;16.02;49.53
14383;BME280;7275;50.328;8.720;2024-03-06T08:28:17;100203.03;;;16.07;49.17
14383;BME280;7275;50.328;8.720;2024-03-06T08:30:45;100197.53;;;16.10;48.99
14383;BME280;7275;50.328;8.720;2024-03-06T08:33:13;100213.22;;;16.16;48.71
14383;BME280;7275;50.328;8.720;2024-03-06T08:35:42;100213.06;;;16.19;48.57
14383;BME280;7275;50.328;8.720;2024-03-06T08:38:09;100212.22;;;16.19;48.43
14383;BME280;7275;50.328;8.720;2024-03-06T08:40:37;100220.22;;;16.19;48.04
14383;BME280;7275;50.328;8.720;2024-03-06T08:43:06;100223.66;;;16.21;48.32
14383;BME280;7275;50.328;8.720;2024-03-06T08:45:35;100216.34;;;16.24;48.14
14383;BME280;7275;50.328;8.720;2024-03-06T08:48:02;100216.03;;;16.30;48.34
14383;BME280;7275;50.328;8.720;2024-03-06T08:50:30;100222.06;;;16.34;48.23
14383;BME280;7275;50.328;8.720;2024-03-06T08:52:59;100221.91;;;16.37;48.28
14383;BME280;7275;50.328;8.720;2024-03-06T08:55:28;100229.69;;;16.41;48.26
14383;BME280;7275;50.328;8.720;2024-03-06T08:57:56;100228.59;;;16.45;48.14
14383;BME280;7275;50.328;8.720;2024-03-06T09:00:24;100224.66;;;16.52;48.04
14383;BME280;7275;50.328;8.720;2024-03-06T09:02:53;100232.34;;;16.58;47.72
14383;BME280;7275;50.328;8.720;2024-03-06T09:05:20;100231.41;;;16.59;47.69
14383;BME280;7275;50.328;8.720;2024-03-06T09:07:48;100234.06;;;16.59;47.60
14383;BME280;7275;50.328;8.720;2024-03-06T09:10:17;100236.59;;;16.62;47.47
14383;BME280;7275;50.328;8.720;2024-03-06T09:12:45;100248.97;;;16.63;47.28
14383;BME280;7275;50.328;8.720;2024-03-06T09:15:14;100241.06;;;16.62;47.23
14383;BME280;7275;50.328;8.720;2024-03-06T09:17:42;100253.69;;;16.58;47.04
14383;BME280;7275;50.328;8.720;2024-03-06T09:20:11;100252.22;;;16.53;47.28
14383;BME280;7275;50.328;8.720;2024-03-06T09:22:41;100254.97;;;16.51;47.23
14383;BME280;7275;50.328;8.720;2024-03-06T09:25:09;100253.53;;;16.44;47.10
14383;BME280;7275;50.328;8.720;2024-03-06T09:27:40;100256.44;;;16.40;47.16
14383;BME280;7275;50.328;8.720;2024-03-06T09:30:09;100253.31;;;16.32;46.99
14383;BME280;7275;50.328;8.720;2024-03-06T09:32:37;100256.16;;;16.29;47.37
14383;BME280;7275;50.328;8.720;2024-03-06T09:35:06;100259.66;;;16.29;47.42
14383;BME280;7275;50.328;8.720;2024-03-06T09:37:34;100250.81;;;16.29;47.33
14383;BME280;7275;50.328;8.720;2024-03-06T09:40:02;100249.72;;;16.33;47.54
14383;BME280;7275;50.328;8.720;2024-03-06T09:42:30;100242.63;;;16.32;47.45
14383;BME280;7275;50.328;8.720;2024-03-06T09:45:00;100241.63;;;16.34;47.49
14383;BME280;7275;50.328;8.720;2024-03-06T09:47:31;100240.50;;;16.38;47.44
14383;BME280;7275;50.328;8.720;2024-03-06T09:50:00;100229.84;;;16.38;47.64
14383;BME280;7275;50.328;8.720;2024-03-06T09:52:30;100239.06;;;16.48;47.65
14383;BME280;7275;50.328;8.720;2024-03-06T09:54:58;100236.06;;;16.56;47.55
14383;BME280;7275;50.328;8.720;2024-03-06T09:57:26;100240.97;;;16.63;47.45
14383;BME280;7275;50.328;8.720;2024-03-06T09:59:54;100221.94;;;16.69;47.31
14383;BME280;7275;50.328;8.720;2024-03-06T10:02:31;100225.16;;;16.76;47.22
14383;BME280;7275;50.328;8.720;2024-03-06T10:05:03;100234.81;;;16.78;47.10
14383;BME280;7275;50.328;8.720;2024-03-06T10:07:31;100231.03;;;16.83;47.15
14383;BME280;7275;50.328;8.720;2024-03-06T10:09:59;100234.28;;;16.88;47.18
14383;BME280;7275;50.328;8.720;2024-03-06T10:12:28;100240.34;;;16.91;46.98
14383;BME280;7275;50.328;8.720;2024-03-06T10:14:57;100236.56;;;16.95;46.96
14383;BME280;7275;50.328;8.720;2024-03-06T10:17:25;100247.78;;;17.02;46.76
14383;BME280;7275;50.328;8.720;2024-03-06T10:19:54;100244.00;;;17.06;46.46
14383;BME280;7275;50.328;8.720;2024-03-06T10:22:24;100239.19;;;17.12;46.76
14383;BME280;7275;50.328;8.720;2024-03-06T10:24:55;100240.47;;;17.21;46.37
14383;BME280;7275;50.328;8.720;2024-03-06T10:27:23;100249.63;;;17.32;46.31
14383;BME280;7275;50.328;8.720;2024-03-06T10:30:00;100238.47;;;17.40;45.92
14383;BME280;7275;50.328;8.720;2024-03-06T10:32:32;100240.50;;;17.52;45.99
14383;BME280;7275;50.328;8.720;2024-03-06T10:35:00;100241.34;;;17.68;45.88
14383;BME280;7275;50.328;8.720;2024-03-06T10:37:29;100244.44;;;17.92;45.67
14383;BME280;7275;50.328;8.720;2024-03-06T10:39:58;100249.84;;;18.20;45.51
14383;BME280;7275;50.328;8.720;2024-03-06T10:42:32;100237.63;;;18.46;45.08
14383;BME280;7275;50.328;8.720;2024-03-06T10:45:01;100240.59;;;18.69;44.67
14383;BME280;7275;50.328;8.720;2024-03-06T10:47:29;100242.41;;;18.97;44.57
14383;BME280;7275;50.328;8.720;2024-03-06T10:50:02;100238.47;;;19.17;42.76
14383;BME280;7275;50.328;8.720;2024-03-06T10:52:33;100238.34;;;19.32;43.17
14383;BME280;7275;50.328;8.720;2024-03-06T10:55:01;100233.75;;;19.48;43.21
14383;BME280;7275;50.328;8.720;2024-03-06T10:57:30;100236.00;;;19.68;43.16
14383;BME280;7275;50.328;8.720;2024-03-06T10:59:57;100238.94;;;19.90;42.90
14383;BME280;7275;50.328;8.720;2024-03-06T11:02:31;100236.63;;;20.25;42.88
14383;BME280;7275;50.328;8.720;2024-03-06T11:05:01;100236.75;;;20.87;42.40
14383;BME280;7275;50.328;8.720;2024-03-06T11:07:31;100244.66;;;21.98;41.86
14383;BME280;7275;50.328;8.720;2024-03-06T11:09:59;100244.09;;;22.52;40.64
14383;BME280;7275;50.328;8.720;2024-03-06T11:12:35;100237.06;;;22.84;39.83
14383;BME280;7275;50.328;8.720;2024-03-06T11:15:09;100242.84;;;23.13;38.83
14383;BME280;7275;50.328;8.720;2024-03-06T11:17:37;100234.47;;;23.16;38.25
14383;BME280;7275;50.328;8.720;2024-03-06T11:20:14;100234.72;;;23.46;38.08
14383;BME280;7275;50.328;8.720;2024-03-06T11:23:09;100236.06;;;23.94;38.29
14383;BME280;7275;50.328;8.720;2024-03-06T11:25:56;100232.78;;;24.22;37.39
14383;BME280;7275;50.328;8.720;2024-03-06T11:28:26;100239.25;;;24.31;36.43
14383;BME280;7275;50.328;8.720;2024-03-06T11:30:55;100223.53;;;24.87;36.05
14383;BME280;7275;50.328;8.720;2024-03-06T11:33:27;100234.16;;;25.39;35.25
14383;BME280;7275;50.328;8.720;2024-03-06T11:36:16;100231.97;;;25.23;34.77
14383;BME280;7275;50.328;8.720;2024-03-06T11:38:51;100233.50;;;25.16;34.83
14383;BME280;7275;50.328;8.720;2024-03-06T11:41:21;100237.34;;;25.54;34.40
14383;BME280;7275;50.328;8.720;2024-03-06T11:43:52;100235.25;;;25.67;32.93
14383;BME280;7275;50.328;8.720;2024-03-06T11:46:20;100242.50;;;25.26;33.30
14383;BME280;7275;50.328;8.720;2024-03-06T11:48:53;100244.03;;;24.80;33.41
14383;BME280;7275;50.328;8.720;2024-03-06T11:51:23;100246.09;;;24.35;33.70
14383;BME280;7275;50.328;8.720;2024-03-06T11:53:51;100248.56;;;23.95;34.15
14383;BME280;7275;50.328;8.720;2024-03-06T11:56:20;100247.22;;;23.58;34.64
14383;BME280;7275;50.328;8.720;2024-03-06T11:58:48;100245.03;;;23.30;34.82
14383;BME280;7275;50.328;8.720;2024-03-06T12:01:16;100248.47;;;22.98;35.11
14383;BME280;7275;50.328;8.720;2024-03-06T12:03:46;100251.97;;;22.66;35.30
14383;BME280;7275;50.328;8.720;2024-03-06T12:06:15;100253.81;;;22.31;35.56
14383;BME280;7275;50.328;8.720;2024-03-06T12:08:44;100255.91;;;21.92;36.51
14383;BME280;7275;50.328;8.720;2024-03-06T12:11:12;100259.00;;;21.63;36.63
14383;BME280;7275;50.328;8.720;2024-03-06T12:13:41;100251.31;;;21.33;37.33
14383;BME280;7275;50.328;8.720;2024-03-06T12:16:09;100258.56;;;21.07;37.39
14383;BME280;7275;50.328;8.720;2024-03-06T12:18:38;100257.91;;;20.91;37.72
14383;BME280;7275;50.328;8.720;2024-03-06T12:21:05;100259.22;;;20.86;37.88
14383;BME280;7275;50.328;8.720;2024-03-06T12:23:33;100251.47;;;20.81;37.71
14383;BME280;7275;50.328;8.720;2024-03-06T12:26:06;100251.38;;;20.70;37.99
14383;BME280;7275;50.328;8.720;2024-03-06T12:28:35;100255.88;;;20.57;38.36
14383;BME280;7275;50.328;8.720;2024-03-06T12:31:04;100262.50;;;20.39;37.99
14383;BME280;7275;50.328;8.720;2024-03-06T12:33:32;100255.81;;;20.19;37.91
14383;BME280;7275;50.328;8.720;2024-03-06T12:36:04;100260.69;;;20.00;37.77
14383;BME280;7275;50.328;8.720;2024-03-06T12:38:32;100263.63;;;19.83;37.90
14383;BME280;7275;50.328;8.720;2024-03-06T12:41:00;100263.47;;;19.72;38.13
14383;BME280;7275;50.328;8.720;2024-03-06T12:43:29;100264.28;;;19.60;38.29
14383;BME280;7275;50.328;8.720;2024-03-06T12:45:57;100269.47;;;19.49;38.62
14383;BME280;7275;50.328;8.720;2024-03-06T12:48:28;100268.03;;;19.43;38.78
14383;BME280;7275;50.328;8.720;2024-03-06T12:50:56;100269.22;;;19.39;38.84
14383;BME280;7275;50.328;8.720;2024-03-06T12:53:31;100267.78;;;19.34;38.77
14383;BME280;7275;50.328;8.720;2024-03-06T12:55:59;100274.16;;;19.17;38.79
14383;BME280;7275;50.328;8.720;2024-03-06T12:58:29;100276.88;;;19.03;38.78
14383;BME280;7275;50.328;8.720;2024-03-06T13:00:58;100274.56;;;18.83;39.38
14383;BME280;7275;50.328;8.720;2024-03-06T13:03:25;100274.63;;;18.67;39.92
14383;BME280;7275;50.328;8.720;2024-03-06T13:05:53;100278.47;;;18.63;40.04
14383;BME280;7275;50.328;8.720;2024-03-06T13:08:21;100270.13;;;18.54;40.06
14383;BME280;7275;50.328;8.720;2024-03-06T13:10:48;100279.72;;;18.42;39.92
14383;BME280;7275;50.328;8.720;2024-03-06T13:13:16;100267.84;;;18.32;40.18
14383;BME280;7275;50.328;8.720;2024-03-06T13:15:45;100261.22;;;18.23;39.97
14383;BME280;7275;50.328;8.720;2024-03-06T13:18:15;100261.53;;;18.19;40.28